sensor_id;sensor_type;location;lat;lon;timestamp;pressure;altitude;pressure_sealevel;temperature;humidity
6094;BME280;19964;42.060;24.700;2022-09-09T00:01:19;97725.16;;;16.68;88.16
6094;BME280;19964;42.060;24.700;2022-09-09T00:03:50;97731.22;;;16.78;86.86
6094;BME280;19964;42.060;24.700;2022-09-09T00:06:23;97724.69;;;16.91;86.14
6094;BME280;19964;42.060;24.700;2022-09-09T00:09:00;97725.22;;;16.93;85.98
6094;BME280;19964;42.060;24.700;2022-09-09T00:11:28;97729.13;;;16.80;86.66
6094;BME280;19964;42.060;24.700;2022-09-09T00:13:55;97730.16;;;16.74;87.11
6094;BME280;19964;42.060;24.700;2022-09-09T00:16:24;97734.34;;;16.70;87.19
6094;BME280;19964;42.060;24.700;2022-09-09T00:18:55;97731.19;;;16.63;87.70
6094;BME280;19964;42.060;24.700;2022-09-09T00:21:25;97729.00;;;16.45;89.84
6094;BME280;19964;42.060;24.700;2022-09-09T00:23:57;97732.72;;;16.49;89.73
6094;BME280;19964;42.060;24.700;2022-09-09T00:26:26;97727.94;;;16.41;89.74
6094;BME280;19964;42.060;24.700;2022-09-09T00:28:59;97726.88;;;16.32;90.13
6094;BME280;19964;42.060;24.700;2022-09-09T00:31:29;97729.22;;;16.39;89.42
6094;BME280;19964;42.060;24.700;2022-09-09T00:33:57;97729.50;;;16.42;89.01
6094;BME280;19964;42.060;24.700;2022-09-09T00:36:29;97733.69;;;16.43;88.45
6094;BME280;19964;42.060;24.700;2022-09-09T00:38:58;97738.97;;;16.48;88.19
6094;BME280;19964;42.060;24.700;2022-09-09T00:41:33;97739.19;;;16.47;88.29
6094;BME280;19964;42.060;24.700;2022-09-09T00:44:09;97747.78;;;16.37;89.03
6094;BME280;19964;42.060;24.700;2022-09-09T00:46:56;97746.22;;;16.36;89.45
6094;BME280;19964;42.060;24.700;2022-09-09T00:49:28;97745.94;;;16.33;90.33
6094;BME280;19964;42.060;24.700;2022-09-09T00:52:02;97740.47;;;16.34;89.71
6094;BME280;19964;42.060;24.700;2022-09-09T00:54:34;97734.72;;;16.32;90.51
6094;BME280;19964;42.060;24.700;2022-09-09T00:57:10;97731.78;;;16.19;91.20
6094;BME280;19964;42.060;24.700;2022-09-09T00:59:42;97735.88;;;16.10;92.30
6094;BME280;19964;42.060;24.700;2022-09-09T01:02:13;97747.69;;;16.12;92.50
6094;BME280;19964;42.060;24.700;2022-09-09T01:04:42;97743.47;;;16.06;92.73
6094;BME280;19964;42.060;24.700;2022-09-09T01:07:12;97744.50;;;16.05;93.66
6094;BME280;19964;42.060;24.700;2022-09-09T01:09:45;97740.03;;;16.00;94.21
6094;BME280;19964;42.060;24.700;2022-09-09T01:12:17;97753.91;;;16.06;93.86
6094;BME280;19964;42.060;24.700;2022-09-09T01:14:45;97749.69;;;16.00;94.49
6094;BME280;19964;42.060;24.700;2022-09-09T01:17:14;97745.22;;;15.95;94.77
6094;BME280;19964;42.060;24.700;2022-09-09T01:19:45;97735.06;;;15.99;95.27
6094;BME280;19964;42.060;24.700;2022-09-09T01:22:21;97732.13;;;15.85;95.75
6094;BME280;19964;42.060;24.700;2022-09-09T01:25:05;97724.03;;;15.92;95.71
6094;BME280;19964;42.060;24.700;2022-09-09T01:27:37;97735.53;;;15.91;96.08
6094;BME280;19964;42.060;24.700;2022-09-09T01:30:04;97732.69;;;15.97;95.56
6094;BME280;19964;42.060;24.700;2022-09-09T01:32:39;97735.63;;;16.06;95.57
6094;BME280;19964;42.060;24.700;2022-09-09T01:35:06;97732.47;;;15.99;95.74
6094;BME280;19964;42.060;24.700;2022-09-09T01:37:34;97734.94;;;15.84;97.22
6094;BME280;19964;42.060;24.700;2022-09-09T01:40:01;97733.94;;;15.85;97.19
6094;BME280;19964;42.060;24.700;2022-09-09T01:42:28;97728.50;;;15.96;96.24
6094;BME280;19964;42.060;24.700;2022-09-09T01:44:56;97734.81;;;16.05;95.63
6094;BME280;19964;42.060;24.700;2022-09-09T01:47:23;97730.13;;;16.02;96.17
6094;BME280;19964;42.060;24.700;2022-09-09T01:49:49;97734.28;;;15.98;96.08
6094;BME280;19964;42.060;24.700;2022-09-09T01:52:16;97727.72;;;15.96;96.04
6094;BME280;19964;42.060;24.700;2022-09-09T01:54:43;97729.97;;;15.77;97.88
6094;BME280;19964;42.060;24.700;2022-09-09T01:57:11;97731.50;;;15.73;97.86
6094;BME280;19964;42.060;24.700;2022-09-09T01:59:45;97742.97;;;15.72;98.79
6094;BME280;19964;42.060;24.700;2022-09-09T02:02:18;97736.94;;;15.67;99.13
6094;BME280;19964;42.060;24.700;2022-09-09T02:04:45;97732.88;;;15.49;100.00
6094;BME280;19964;42.060;24.700;2022-09-09T02:07:27;97733.41;;;15.46;100.00
6094;BME280;19964;42.060;24.700;2022-09-09T02:09:57;97732.56;;;15.41;100.00
6094;BME280;19964;42.060;24.700;2022-09-09T02:12:25;97735.28;;;15.29;100.00
6094;BME280;19964;42.060;24.700;2022-09-09T02:14:55;97729.75;;;15.21;100.00
6094;BME280;19964;42.060;24.700;2022-09-09T02:17:24;97726.06;;;15.16;100.00
6094;BME280;19964;42.060;24.700;2022-09-09T02:19:53;97721.66;;;15.17;100.00
6094;BME280;19964;42.060;24.700;2022-09-09T02:22:23;97724.34;;;15.27;100.00
6094;BME280;19964;42.060;24.700;2022-09-09T02:24:52;97719.56;;;15.19;100.00
6094;BME280;19964;42.060;24.700;2022-09-09T02:27:23;97729.03;;;14.98;100.00
6094;BME280;19964;42.060;24.700;2022-09-09T02:29:50;97715.94;;;14.93;100.00
6094;BME280;19964;42.060;24.700;2022-09-09T02:32:19;97713.91;;;15.00;100.00
6094;BME280;19964;42.060;24.700;2022-09-09T02:34:49;97715.78;;;15.05;100.00
6094;BME280;19964;42.060;24.700;2022-09-09T02:37:19;97713.91;;;15.00;100.00
6094;BME280;19964;42.060;24.700;2022-09-09T02:39:46;97719.69;;;15.02;100.00
6094;BME280;19964;42.060;24.700;2022-09-09T02:42:16;97721.03;;;15.10;100.00
6094;BME280;19964;42.060;24.700;2022-09-09T02:44:43;97724.19;;;15.12;100.00
6094;BME280;19964;42.060;24.700;2022-09-09T02:47:16;97721.03;;;15.10;100.00
6094;BME280;19964;42.060;24.700;2022-09-09T02:49:51;97732.53;;;15.09;100.00
6094;BME280;19964;42.060;24.700;2022-09-09T02:52:26;97729.03;;;14.98;100.00
6094;BME280;19964;42.060;24.700;2022-09-09T02:54:54;97731.47;;;15.10;100.00
6094;BME280;19964;42.060;24.700;2022-09-09T02:57:25;97736.25;;;15.18;100.00
6094;BME280;19964;42.060;24.700;2022-09-09T02:59:55;97730.78;;;15.19;100.00
6094;BME280;19964;42.060;24.700;2022-09-09T03:02:23;97734.25;;;15.25;100.00
6094;BME280;19964;42.060;24.700;2022-09-09T03:04:51;97734.81;;;15.32;100.00
6094;BME280;19964;42.060;24.700;2022-09-09T03:07:18;97737.16;;;15.29;100.00
6094;BME280;19964;42.060;24.700;2022-09-09T03:09:45;97738.69;;;15.30;100.00
6094;BME280;19964;42.060;24.700;2022-09-09T03:12:12;97736.16;;;15.35;100.00
6094;BME280;19964;42.060;24.700;2022-09-09T03:14:38;97738.00;;;15.39;100.00
6094;BME280;19964;42.060;24.700;2022-09-09T03:17:05;97742.00;;;15.47;100.00
6094;BME280;19964;42.060;24.700;2022-09-09T03:19:32;97734.97;;;15.47;100.00
6094;BME280;19964;42.060;24.700;2022-09-09T03:22:01;97732.00;;;15.39;100.00
6094;BME280;19964;42.060;24.700;2022-09-09T03:24:29;97732.84;;;15.17;100.00
6094;BME280;19964;42.060;24.700;2022-09-09T03:26:56;97740.69;;;15.17;100.00
6094;BME280;19964;42.060;24.700;2022-09-09T03:29:22;97749.16;;;15.30;100.00
6094;BME280;19964;42.060;24.700;2022-09-09T03:31:49;97748.16;;;15.36;100.00
6094;BME280;19964;42.060;24.700;2022-09-09T03:34:16;97757.88;;;15.40;100.00
6094;BME280;19964;42.060;24.700;2022-09-09T03:36:43;97760.00;;;15.43;100.00
6094;BME280;19964;42.060;24.700;2022-09-09T03:39:11;97764.06;;;15.34;100.00
6094;BME280;19964;42.060;24.700;2022-09-09T03:41:39;97756.88;;;15.19;100.00
6094;BME280;19964;42.060;24.700;2022-09-09T03:44:05;97772.59;;;15.25;100.00
6094;BME280;19964;42.060;24.700;2022-09-09T03:46:32;97763.50;;;15.27;100.00
6094;BME280;19964;42.060;24.700;2022-09-09T03:48:59;97772.13;;;15.01;100.00
6094;BME280;19964;42.060;24.700;2022-09-09T03:51:26;97761.41;;;15.02;100.00
6094;BME280;19964;42.060;24.700;2022-09-09T03:53:53;97758.28;;;15.00;100.00
6094;BME280;19964;42.060;24.700;2022-09-09T03:56:22;97751.50;;;14.99;100.00
6094;BME280;19964;42.060;24.700;2022-09-09T03:58:48;97753.56;;;14.97;100.00
6094;BME280;19964;42.060;24.700;2022-09-09T04:01:15;97748.34;;;14.97;100.00
6094;BME280;19964;42.060;24.700;2022-09-09T04:03:43;97752.06;;;15.06;100.00
6094;BME280;19964;42.060;24.700;2022-09-09T04:06:10;97744.03;;;14.86;100.00
6094;BME280;19964;42.060;24.700;2022-09-09T04:08:38;97743.06;;;14.92;100.00
6094;BME280;19964;42.060;24.700;2022-09-09T04:11:05;97751.38;;;15.16;100.00
6094;BME280;19964;42.060;24.700;2022-09-09T04:13:34;97744.97;;;15.29;100.00
6094;BME280;19964;42.060;24.700;2022-09-09T04:16:02;97760.66;;;15.34;100.00
6094;BME280;19964;42.060;24.700;2022-09-09T04:18:30;97749.44;;;15.60;100.00
6094;BME280;19964;42.060;24.700;2022-09-09T04:20:57;97747.84;;;15.59;100.00
6094;BME280;19964;42.060;24.700;2022-09-09T04:23:24;97747.78;;;15.85;100.00
6094;BME280;19964;42.060;24.700;2022-09-09T04:25:51;97745.06;;;16.12;100.00
6094;BME280;19964;42.060;24.700;2022-09-09T04:28:19;97750.34;;;16.27;98.84
6094;BME280;19964;42.060;24.700;2022-09-09T04:30:48;97749.47;;;16.58;95.91
6094;BME280;19964;42.060;24.700;2022-09-09T04:33:15;97753.94;;;16.63;95.42
6094;BME280;19964;42.060;24.700;2022-09-09T04:35:43;97759.81;;;17.00;92.90
6094;BME280;19964;42.060;24.700;2022-09-09T04:38:10;97762.47;;;17.20;91.46
6094;BME280;19964;42.060;24.700;2022-09-09T04:40:37;97765.66;;;17.52;88.88
6094;BME280;19964;42.060;24.700;2022-09-09T04:43:07;97766.41;;;17.83;86.84
6094;BME280;19964;42.060;24.700;2022-09-09T04:45:34;97772.16;;;17.95;85.85
6094;BME280;19964;42.060;24.700;2022-09-09T04:48:04;97774.19;;;18.33;84.24
6094;BME280;19964;42.060;24.700;2022-09-09T04:50:30;97775.41;;;18.66;82.42
6094;BME280;19964;42.060;24.700;2022-09-09T04:52:59;97775.53;;;18.95;79.90
6094;BME280;19964;42.060;24.700;2022-09-09T04:55:26;97784.78;;;19.31;79.18
6094;BME280;19964;42.060;24.700;2022-09-09T04:57:52;97781.66;;;19.24;77.37
6094;BME280;19964;42.060;24.700;2022-09-09T05:00:19;97796.97;;;19.56;77.07
6094;BME280;19964;42.060;24.700;2022-09-09T05:02:46;97805.13;;;19.88;76.01
6094;BME280;19964;42.060;24.700;2022-09-09T05:05:14;97808.22;;;20.23;75.17
6094;BME280;19964;42.060;24.700;2022-09-09T05:07:41;97803.06;;;20.42;74.07
6094;BME280;19964;42.060;24.700;2022-09-09T05:10:08;97804.34;;;20.16;73.53
6094;BME280;19964;42.060;24.700;2022-09-09T05:12:35;97812.59;;;20.33;73.21
6094;BME280;19964;42.060;24.700;2022-09-09T05:15:02;97803.63;;;20.81;72.04
6094;BME280;19964;42.060;24.700;2022-09-09T05:17:29;97799.00;;;21.15;70.59
6094;BME280;19964;42.060;24.700;2022-09-09T05:19:56;97797.53;;;21.60;68.51
6094;BME280;19964;42.060;24.700;2022-09-09T05:22:24;97801.16;;;21.83;66.78
6094;BME280;19964;42.060;24.700;2022-09-09T05:24:51;97801.78;;;21.75;67.97
6094;BME280;19964;42.060;24.700;2022-09-09T05:27:17;97794.75;;;22.02;66.72
6094;BME280;19964;42.060;24.700;2022-09-09T05:29:45;97803.66;;;22.06;67.64
6094;BME280;19964;42.060;24.700;2022-09-09T05:32:11;97793.84;;;22.53;65.27
6094;BME280;19964;42.060;24.700;2022-09-09T05:34:38;97791.34;;;22.97;63.45
6094;BME280;19964;42.060;24.700;2022-09-09T05:37:05;97793.06;;;22.79;63.39
6094;BME280;19964;42.060;24.700;2022-09-09T05:39:34;97793.03;;;22.11;65.94
6094;BME280;19964;42.060;24.700;2022-09-09T05:42:02;97794.16;;;21.22;69.55
6094;BME280;19964;42.060;24.700;2022-09-09T05:44:29;97804.63;;;21.27;70.13
6094;BME280;19964;42.060;24.700;2022-09-09T05:46:56;97805.06;;;21.85;69.51
6094;BME280;19964;42.060;24.700;2022-09-09T05:49:23;97809.53;;;22.03;68.63
6094;BME280;19964;42.060;24.700;2022-09-09T05:51:50;97804.38;;;21.61;69.31
6094;BME280;19964;42.060;24.700;2022-09-09T05:54:17;97800.91;;;21.98;68.14
6094;BME280;19964;42.060;24.700;2022-09-09T05:56:45;97807.78;;;21.62;68.04
6094;BME280;19964;42.060;24.700;2022-09-09T05:59:12;97805.47;;;21.42;69.24
6094;BME280;19964;42.060;24.700;2022-09-09T06:01:40;97797.00;;;21.77;68.79
6094;BME280;19964;42.060;24.700;2022-09-09T06:04:07;97793.72;;;21.53;69.66
6094;BME280;19964;42.060;24.700;2022-09-09T06:06:34;97785.75;;;21.02;71.84
6094;BME280;19964;42.060;24.700;2022-09-09T06:09:02;97770.47;;;20.80;72.59
6094;BME280;19964;42.060;24.700;2022-09-09T06:11:31;97759.19;;;21.36;71.57
6094;BME280;19964;42.060;24.700;2022-09-09T06:14:02;97764.06;;;22.06;68.73
6094;BME280;19964;42.060;24.700;2022-09-09T06:16:30;97775.25;;;22.71;67.87
6094;BME280;19964;42.060;24.700;2022-09-09T06:18:57;97781.44;;;21.94;66.37
6094;BME280;19964;42.060;24.700;2022-09-09T06:21:25;97778.16;;;22.02;67.88
6094;BME280;19964;42.060;24.700;2022-09-09T06:23:52;97784.22;;;22.30;66.92
6094;BME280;19964;42.060;24.700;2022-09-09T06:26:20;97785.88;;;22.39;66.11
6094;BME280;19964;42.060;24.700;2022-09-09T06:28:48;97780.03;;;22.56;65.89
6094;BME280;19964;42.060;24.700;2022-09-09T06:31:17;97786.19;;;22.38;65.75
6094;BME280;19964;42.060;24.700;2022-09-09T06:33:46;97793.25;;;22.69;65.28
6094;BME280;19964;42.060;24.700;2022-09-09T06:36:15;97807.22;;;23.46;62.85
6094;BME280;19964;42.060;24.700;2022-09-09T06:38:43;97817.59;;;24.09;60.19
6094;BME280;19964;42.060;24.700;2022-09-09T06:41:10;97809.88;;;23.46;60.08
6094;BME280;19964;42.060;24.700;2022-09-09T06:43:37;97814.13;;;23.78;59.52
6094;BME280;19964;42.060;24.700;2022-09-09T06:46:05;97825.84;;;24.08;60.55
6094;BME280;19964;42.060;24.700;2022-09-09T06:48:34;97815.56;;;24.76;56.67
6094;BME280;19964;42.060;24.700;2022-09-09T06:51:02;97823.53;;;24.15;57.19
6094;BME280;19964;42.060;24.700;2022-09-09T06:53:29;97816.44;;;24.71;57.26
6094;BME280;19964;42.060;24.700;2022-09-09T06:55:58;97828.69;;;24.90;54.88
6094;BME280;19964;42.060;24.700;2022-09-09T06:58:25;97826.91;;;24.29;57.23
6094;BME280;19964;42.060;24.700;2022-09-09T07:00:53;97831.78;;;24.83;57.02
6094;BME280;19964;42.060;24.700;2022-09-09T07:03:27;97835.91;;;24.98;54.44
6094;BME280;19964;42.060;24.700;2022-09-09T07:05:55;97820.81;;;25.49;53.53
6094;BME280;19964;42.060;24.700;2022-09-09T07:08:22;97814.09;;;25.26;53.38
6094;BME280;19964;42.060;24.700;2022-09-09T07:10:49;97811.75;;;25.33;54.64
6094;BME280;19964;42.060;24.700;2022-09-09T07:13:19;97806.13;;;25.18;54.16
6094;BME280;19964;42.060;24.700;2022-09-09T07:15:46;97784.16;;;25.26;53.44
6094;BME280;19964;42.060;24.700;2022-09-09T07:18:12;97802.88;;;25.46;54.96
6094;BME280;19964;42.060;24.700;2022-09-09T07:20:39;97812.41;;;25.65;53.84
6094;BME280;19964;42.060;24.700;2022-09-09T07:23:07;97815.81;;;25.14;54.08
6094;BME280;19964;42.060;24.700;2022-09-09T07:25:34;97816.38;;;24.46;56.13
6094;BME280;19964;42.060;24.700;2022-09-09T07:28:01;97822.78;;;24.14;56.69
6094;BME280;19964;42.060;24.700;2022-09-09T07:30:28;97812.84;;;23.98;58.27
6094;BME280;19964;42.060;24.700;2022-09-09T07:32:55;97821.13;;;24.27;55.57
6094;BME280;19964;42.060;24.700;2022-09-09T07:35:23;97804.53;;;24.43;57.72
6094;BME280;19964;42.060;24.700;2022-09-09T07:37:50;97806.94;;;25.44;56.31
6094;BME280;19964;42.060;24.700;2022-09-09T07:40:18;97819.81;;;26.14;53.07
6094;BME280;19964;42.060;24.700;2022-09-09T07:42:45;97821.25;;;25.17;52.16
6094;BME280;19964;42.060;24.700;2022-09-09T07:45:12;97812.38;;;24.57;56.00
6094;BME280;19964;42.060;24.700;2022-09-09T07:47:39;97812.22;;;25.27;54.27
6094;BME280;19964;42.060;24.700;2022-09-09T07:50:06;97810.34;;;25.62;53.39
6094;BME280;19964;42.060;24.700;2022-09-09T07:52:33;97810.50;;;24.57;55.04
6094;BME280;19964;42.060;24.700;2022-09-09T07:55:00;97794.44;;;25.27;55.37
6094;BME280;19964;42.060;24.700;2022-09-09T07:57:29;97802.75;;;25.43;52.55
6094;BME280;19964;42.060;24.700;2022-09-09T07:59:56;97796.53;;;24.74;53.93
6094;BME280;19964;42.060;24.700;2022-09-09T08:02:23;97801.75;;;24.96;54.42
6094;BME280;19964;42.060;24.700;2022-09-09T08:04:50;97796.59;;;25.17;54.59
6094;BME280;19964;42.060;24.700;2022-09-09T08:07:17;97783.53;;;25.54;53.71
6094;BME280;19964;42.060;24.700;2022-09-09T08:09:46;97798.78;;;26.38;52.23
6094;BME280;19964;42.060;24.700;2022-09-09T08:12:13;97796.41;;;25.99;53.25
6094;BME280;19964;42.060;24.700;2022-09-09T08:14:41;97795.06;;;25.33;52.40
6094;BME280;19964;42.060;24.700;2022-09-09T08:17:07;97786.56;;;25.91;53.05
6094;BME280;19964;42.060;24.700;2022-09-09T08:19:35;97786.91;;;25.89;52.49
6094;BME280;19964;42.060;24.700;2022-09-09T08:22:02;97797.66;;;26.48;51.56
6094;BME280;19964;42.060;24.700;2022-09-09T08:24:28;97792.56;;;26.72;51.26
6094;BME280;19964;42.060;24.700;2022-09-09T08:26:55;97785.94;;;27.48;49.00
6094;BME280;19964;42.060;24.700;2022-09-09T08:29:22;97777.53;;;27.91;48.20
6094;BME280;19964;42.060;24.700;2022-09-09T08:31:52;97775.16;;;27.89;48.56
6094;BME280;19964;42.060;24.700;2022-09-09T08:34:19;97762.50;;;28.67;47.93
6094;BME280;19964;42.060;24.700;2022-09-09T08:36:47;97767.34;;;29.01;46.25
6094;BME280;19964;42.060;24.700;2022-09-09T08:39:14;97766.25;;;27.20;48.25
6094;BME280;19964;42.060;24.700;2022-09-09T08:44:38;97767.03;;;26.04;51.18
6094;BME280;19964;42.060;24.700;2022-09-09T08:47:10;97763.19;;;25.67;52.39
6094;BME280;19964;42.060;24.700;2022-09-09T08:49:48;97763.72;;;26.15;51.13
6094;BME280;19964;42.060;24.700;2022-09-09T08:52:22;97762.16;;;26.52;52.53
6094;BME280;19964;42.060;24.700;2022-09-09T08:54:50;97771.63;;;25.78;51.60
6094;BME280;19964;42.060;24.700;2022-09-09T08:57:19;97765.19;;;26.63;51.71
6094;BME280;19964;42.060;24.700;2022-09-09T08:59:47;97767.25;;;26.28;51.05
6094;BME280;19964;42.060;24.700;2022-09-09T09:02:17;97756.25;;;26.96;50.49
6094;BME280;19964;42.060;24.700;2022-09-09T09:04:50;97756.84;;;28.08;47.43
6094;BME280;19964;42.060;24.700;2022-09-09T09:07:25;97763.09;;;27.92;48.31
6094;BME280;19964;42.060;24.700;2022-09-09T09:09:57;97754.19;;;27.22;50.42
6094;BME280;19964;42.060;24.700;2022-09-09T09:12:27;97753.16;;;28.13;48.33
6094;BME280;19964;42.060;24.700;2022-09-09T09:14:55;97761.50;;;28.36;46.66
6094;BME280;19964;42.060;24.700;2022-09-09T09:17:26;97750.28;;;28.66;46.45
6094;BME280;19964;42.060;24.700;2022-09-09T09:19:56;97747.38;;;28.71;47.05
6094;BME280;19964;42.060;24.700;2022-09-09T09:22:25;97750.50;;;28.73;46.59
6094;BME280;19964;42.060;24.700;2022-09-09T09:24:58;97745.44;;;29.08;45.90
6094;BME280;19964;42.060;24.700;2022-09-09T09:27:30;97737.16;;;29.25;44.82
6094;BME280;19964;42.060;24.700;2022-09-09T09:29:57;97733.31;;;28.59;46.01
6094;BME280;19964;42.060;24.700;2022-09-09T09:32:27;97730.91;;;29.33;47.60
6094;BME280;19964;42.060;24.700;2022-09-09T09:34:56;97724.56;;;29.97;45.27
6094;BME280;19964;42.060;24.700;2022-09-09T09:37:26;97721.88;;;30.12;44.99
6094;BME280;19964;42.060;24.700;2022-09-09T09:39:53;97713.97;;;29.41;45.30
6094;BME280;19964;42.060;24.700;2022-09-09T09:42:20;97716.63;;;28.62;47.51
6094;BME280;19964;42.060;24.700;2022-09-09T09:44:47;97725.59;;;28.81;44.96
6094;BME280;19964;42.060;24.700;2022-09-09T09:47:15;97708.16;;;29.24;45.79
6094;BME280;19964;42.060;24.700;2022-09-09T09:49:51;97705.84;;;29.38;44.63
6094;BME280;19964;42.060;24.700;2022-09-09T09:52:20;97712.25;;;28.69;45.51
6094;BME280;19964;42.060;24.700;2022-09-09T09:54:49;97704.75;;;28.23;47.39
6094;BME280;19964;42.060;24.700;2022-09-09T09:57:16;97705.94;;;28.50;46.49
6094;BME280;19964;42.060;24.700;2022-09-09T09:59:44;97698.13;;;29.21;45.12
6094;BME280;19964;42.060;24.700;2022-09-09T10:02:16;97693.78;;;29.87;44.58
6094;BME280;19964;42.060;24.700;2022-09-09T10:04:43;97694.78;;;29.98;45.91
6094;BME280;19964;42.060;24.700;2022-09-09T10:07:12;97684.53;;;28.98;48.63
6094;BME280;19964;42.060;24.700;2022-09-09T10:09:39;97678.09;;;29.27;46.99
6094;BME280;19964;42.060;24.700;2022-09-09T10:12:08;97675.94;;;29.32;46.31
6094;BME280;19964;42.060;24.700;2022-09-09T10:14:43;97679.66;;;29.28;47.56
6094;BME280;19964;42.060;24.700;2022-09-09T10:17:15;97680.97;;;28.94;45.86
6094;BME280;19964;42.060;24.700;2022-09-09T10:19:47;97686.59;;;28.77;48.29
6094;BME280;19964;42.060;24.700;2022-09-09T10:22:24;97678.41;;;28.46;47.08
6094;BME280;19964;42.060;24.700;2022-09-09T10:25:01;97674.97;;;28.57;46.41
6094;BME280;19964;42.060;24.700;2022-09-09T10:27:33;97676.53;;;28.98;45.26
6094;BME280;19964;42.060;24.700;2022-09-09T10:30:06;97688.31;;;28.09;47.56
6094;BME280;19964;42.060;24.700;2022-09-09T10:32:44;97682.06;;;27.81;48.01
6094;BME280;19964;42.060;24.700;2022-09-09T10:35:12;97674.84;;;28.42;48.01
6094;BME280;19964;42.060;24.700;2022-09-09T10:37:52;97679.09;;;28.06;47.08
6094;BME280;19964;42.060;24.700;2022-09-09T10:40:23;97675.56;;;28.02;48.92
6094;BME280;19964;42.060;24.700;2022-09-09T10:42:52;97676.41;;;28.43;47.36
6094;BME280;19964;42.060;24.700;2022-09-09T10:45:25;97673.63;;;28.51;47.62
6094;BME280;19964;42.060;24.700;2022-09-09T10:48:05;97664.75;;;28.23;47.89
6094;BME280;19964;42.060;24.700;2022-09-09T10:50:42;97661.88;;;28.28;48.05
6094;BME280;19964;42.060;24.700;2022-09-09T10:53:14;97662.78;;;28.32;48.20
6094;BME280;19964;42.060;24.700;2022-09-09T10:55:45;97667.84;;;27.89;49.37
6094;BME280;19964;42.060;24.700;2022-09-09T10:58:17;97666.09;;;28.29;47.75
6094;BME280;19964;42.060;24.700;2022-09-09T11:00:47;97665.50;;;28.99;46.56
6094;BME280;19964;42.060;24.700;2022-09-09T11:03:17;97658.31;;;28.88;47.83
6094;BME280;19964;42.060;24.700;2022-09-09T11:05:46;97650.50;;;28.95;47.31
6094;BME280;19964;42.060;24.700;2022-09-09T11:08:17;97646.72;;;28.68;47.09
6094;BME280;19964;42.060;24.700;2022-09-09T11:10:45;97643.50;;;28.63;48.10
6094;BME280;19964;42.060;24.700;2022-09-09T11:13:18;97639.59;;;29.28;47.73
6094;BME280;19964;42.060;24.700;2022-09-09T11:15:46;97634.00;;;28.77;47.25
6094;BME280;19964;42.060;24.700;2022-09-09T11:18:17;97644.75;;;28.81;47.66
6094;BME280;19964;42.060;24.700;2022-09-09T11:20:47;97639.75;;;29.19;47.44
6094;BME280;19964;42.060;24.700;2022-09-09T11:23:18;97632.38;;;29.59;48.20
6094;BME280;19964;42.060;24.700;2022-09-09T11:25:48;97629.63;;;30.03;46.31
6094;BME280;19964;42.060;24.700;2022-09-09T11:28:22;97626.56;;;29.26;47.16
6094;BME280;19964;42.060;24.700;2022-09-09T11:30:56;97618.66;;;29.30;48.77
6094;BME280;19964;42.060;24.700;2022-09-09T11:33:32;97631.84;;;28.83;47.00
6094;BME280;19964;42.060;24.700;2022-09-09T11:36:06;97633.47;;;27.96;48.99
6094;BME280;19964;42.060;24.700;2022-09-09T11:38:39;97635.25;;;28.16;48.93
6094;BME280;19964;42.060;24.700;2022-09-09T11:41:07;97621.25;;;28.07;50.05
6094;BME280;19964;42.060;24.700;2022-09-09T11:43:38;97614.56;;;28.77;49.32
6094;BME280;19964;42.060;24.700;2022-09-09T11:46:06;97617.94;;;28.62;48.34
6094;BME280;19964;42.060;24.700;2022-09-09T11:48:33;97620.88;;;28.84;49.00
6094;BME280;19964;42.060;24.700;2022-09-09T11:51:05;97615.28;;;28.62;48.92
6094;BME280;19964;42.060;24.700;2022-09-09T11:53:32;97613.56;;;28.69;48.54
6094;BME280;19964;42.060;24.700;2022-09-09T11:56:04;97610.56;;;28.98;47.96
6094;BME280;19964;42.060;24.700;2022-09-09T11:58:34;97606.41;;;29.13;50.08
6094;BME280;19964;42.060;24.700;2022-09-09T12:01:12;97609.88;;;29.14;49.69
6094;BME280;19964;42.060;24.700;2022-09-09T12:03:40;97602.50;;;28.83;48.35
6094;BME280;19964;42.060;24.700;2022-09-09T12:06:12;97599.22;;;28.74;50.42
6094;BME280;19964;42.060;24.700;2022-09-09T12:08:43;97600.72;;;28.87;49.26
6094;BME280;19964;42.060;24.700;2022-09-09T12:11:22;97600.22;;;29.25;48.18
6094;BME280;19964;42.060;24.700;2022-09-09T12:13:52;97590.16;;;28.90;48.24
6094;BME280;19964;42.060;24.700;2022-09-09T12:16:28;97595.31;;;28.44;49.73
6094;BME280;19964;42.060;24.700;2022-09-09T12:19:03;97588.00;;;28.29;48.51
6094;BME280;19964;42.060;24.700;2022-09-09T12:21:34;97584.22;;;28.69;49.17
6094;BME280;19964;42.060;24.700;2022-09-09T12:24:06;97580.69;;;28.93;49.62
6094;BME280;19964;42.060;24.700;2022-09-09T12:26:41;97582.38;;;28.85;48.73
6094;BME280;19964;42.060;24.700;2022-09-09T12:29:16;97573.38;;;28.90;49.73
6094;BME280;19964;42.060;24.700;2022-09-09T12:32:10;97570.75;;;28.78;51.93
6094;BME280;19964;42.060;24.700;2022-09-09T12:34:38;97571.06;;;29.04;48.89
6094;BME280;19964;42.060;24.700;2022-09-09T12:37:11;97565.69;;;28.73;49.04
6094;BME280;19964;42.060;24.700;2022-09-09T12:39:42;97572.69;;;28.93;48.50
6094;BME280;19964;42.060;24.700;2022-09-09T12:42:20;97567.69;;;28.64;48.61
6094;BME280;19964;42.060;24.700;2022-09-09T12:44:52;97565.41;;;28.78;49.19
6094;BME280;19964;42.060;24.700;2022-09-09T12:47:20;97564.03;;;28.68;48.96
6094;BME280;19964;42.060;24.700;2022-09-09T12:49:49;97562.19;;;28.84;49.04
6094;BME280;19964;42.060;24.700;2022-09-09T12:52:18;97560.19;;;28.97;48.61
6094;BME280;19964;42.060;24.700;2022-09-09T12:54:47;97560.34;;;29.16;48.97
6094;BME280;19964;42.060;24.700;2022-09-09T12:57:20;97553.19;;;29.20;49.46
6094;BME280;19964;42.060;24.700;2022-09-09T12:59:50;97558.97;;;28.79;48.87
6094;BME280;19964;42.060;24.700;2022-09-09T13:02:20;97550.63;;;28.53;49.46
6094;BME280;19964;42.060;24.700;2022-09-09T13:04:48;97543.31;;;28.93;52.22
6094;BME280;19964;42.060;24.700;2022-09-09T13:07:18;97549.22;;;29.30;48.25
6094;BME280;19964;42.060;24.700;2022-09-09T13:09:47;97552.16;;;29.40;48.42
6094;BME280;19964;42.060;24.700;2022-09-09T13:12:19;97551.34;;;28.93;49.35